Spires, Illinois
Current Conditions -  °F | °C
As of 8:55 PM on Sunday 21 Dec 2014 (Local Time) from KC75 Reporting Station
Overcast Overcast  
Wind Chill: 27°   Ceiling: 3500
Heat Index: 35°   Visibility: 10mi
Dew Point: 29°   Wind: 12mph
Humidity: 80%   Direction: 150°SSE
Pressure: 30"   Gusts: NA
Location:  40.8848°N, 89.0396°W
Report Text: KC75 220255Z AUTO 15010KT 10SM OVC035 02/M01 A3000 RMK AO2 T00161015
Loading
Personal Weather Stations






























Interactive Weather Map New forecast layout! Learn more

10-Day Weather Forecast

Advertisements
Track Severe Weather on mobile